Liberty of The Seas — C6VQ8 — position and weather

sailwx.info

Track history (hours):
 
Tides and Currents Weather Stations Pressure Air Temp Water Temp Dewpoint Dewpoint Depression Visibility Wind Speed Wind Dir Waves Ship Positions

Liberty of The Seas

Last reported at 2014-Sep-30 08:26 UTC. Time now 2014-Sep-30 12:04 UTC.
Position N 43°41' E 007°19'.

Type: Passenger vessel. MMSI: 309436000.

Date/timePositionNaut miles runAvg speedWind from/ knotsBaromVisibWave heightAir tempDewpointWater temp
2014-Sep-30 08:26N 43°41' E 007°19'0 0.0
2014-Sep-30 07:26N 43°41' E 007°19'0 0.0
2014-Sep-30 06:26N 43°41' E 007°19'0 0.0
2014-Sep-30 05:32N 43°41' E 007°19'0 0.1
2014-Sep-30 04:33N 43°41' E 007°19'10 9.8
2014-Sep-30 03:33N 43°32' E 007°17'1711.7
2014-Sep-30 02:05N 43°15' E 007°10'612.2
2014-Sep-30 01:33N 43°10' E 007°06'1312.5
2014-Sep-30 00:34N 43°01' E 006°54'1312.7
2014-Sep-29 23:33N 42°51' E 006°43'2411.7
2014-Sep-29 21:31N 42°44' E 006°12'1212.2
2014-Sep-29 20:33N 42°46' E 005°56'1211.9
2014-Sep-29 19:33N 42°49' E 005°40'3012.2
2014-Sep-29 17:06N 43°14' E 005°16'8 0.7
2014-Sep-29 06:25N 43°21' E 005°20'8 9.6
2014-Sep-29 05:33N 43°16' E 005°11'134 4.3
2014-Sep-27 22:29N 41°16' E 003°48'9716.1
2014-Sep-27 16:27N 41°17' E 005°57'1615.8
2014-Sep-27 15:26N 41°17' E 006°18'1716.7
2014-Sep-27 14:26N 41°17' E 006°41'  
2014-Sep-24 19:32N 43°34' E 009°38'1616.4
2014-Sep-24 18:33N 43°49' E 009°47'1515.0
2014-Sep-24 17:33N 44°04' E 009°51'3 2.8
2014-Sep-24 16:33N 44°06' E 009°50'0 0.0
2014-Sep-24 15:33N 44°06' E 009°50'0 0.0
2014-Sep-24 14:33N 44°06' E 009°50'0 0.0
2014-Sep-24 13:33N 44°06' E 009°50'0 0.0
2014-Sep-24 12:33N 44°06' E 009°50'0 0.0
2014-Sep-24 11:33N 44°06' E 009°50'0 0.0
2014-Sep-24 10:33N 44°06' E 009°50'0 0.0
2014-Sep-24 09:33N 44°06' E 009°50'0 0.0
2014-Sep-24 08:33N 44°06' E 009°50'0 0.0
2014-Sep-24 07:33N 44°06' E 009°50'0 0.0
2014-Sep-24 06:33N 44°06' E 009°50'0 0.0
2014-Sep-24 05:33N 44°06' E 009°50'0 0.3
2014-Sep-24 04:33N 44°06' E 009°50'7 6.6
2014-Sep-24 03:33N 44°01' E 009°56'9 8.7
2014-Sep-24 02:33N 43°57' E 009°45'1110.7
2014-Sep-24 01:33N 43°56' E 009°30'1111.2
2014-Sep-24 00:33N 43°54' E 009°15'1111.4
2014-Sep-23 23:33N 43°52' E 008°59'1111.4
2014-Sep-23 22:33N 43°50' E 008°44'1211.7
2014-Sep-23 21:30N 43°48' E 008°27'4911.8
2014-Sep-23 17:20N 43°40' E 007°20'2 1.8
2014-Sep-23 16:15N 43°41' E 007°19'0 0.0
2014-Sep-23 15:09N 43°41' E 007°19'0 0.0
2014-Sep-23 14:15N 43°41' E 007°19'0 0.0
2014-Sep-23 13:09N 43°41' E 007°19'0 0.0
2014-Sep-23 09:27N 43°41' E 007°19'0 0.0
2014-Sep-23 08:33N 43°41' E 007°19'0 0.0
2014-Sep-23 07:33N 43°41' E 007°19'0 0.0
2014-Sep-23 06:31N 43°41' E 007°19'0 0.0
2014-Sep-23 05:31N 43°41' E 007°19'3 2.0
2014-Sep-23 04:10N 43°39' E 007°18'711.0
2014-Sep-23 03:33N 43°32' E 007°17'1611.2
2014-Sep-23 02:10N 43°17' E 007°12'711.6
2014-Sep-23 01:33N 43°12' E 007°06'1411.6
2014-Sep-23 00:19N 43°01' E 006°52'1012.7
2014-Sep-22 23:33N 42°53' E 006°44'1211.6
2014-Sep-22 22:33N 42°45' E 006°33'1312.0
2014-Sep-22 21:29N 42°45' E 006°16'1111.9
2014-Sep-22 20:32N 42°46' E 006°00'1212.0
2014-Sep-22 19:33N 42°48' E 005°45'38 2.9
2014-Sep-22 06:29N 43°21' E 005°20'1011.1
2014-Sep-22 05:33N 43°14' E 005°09'1615.7
2014-Sep-22 04:33N 43°03' E 004°54'1615.6
2014-Sep-22 03:32N 42°50' E 004°40'1515.5
2014-Sep-22 02:33N 42°39' E 004°27'2115.5
2014-Sep-22 01:14N 42°23' E 004°09'3016.4
2014-Sep-21 23:25N 42°02' E 003°41'1516.5
2014-Sep-21 22:31N 41°51' E 003°27'1616.2
2014-Sep-21 21:33N 41°43' E 003°10'2019.1
2014-Sep-21 20:29N 41°32' E 002°46'1212.9
2014-Sep-21 19:33N 41°26' E 002°33'1716.4
2014-Sep-21 18:30N 41°16' E 002°13'5 4.9
2014-Sep-21 17:25N 41°22' E 002°11'0 0.0
2014-Sep-21 15:19N 41°22' E 002°11'0 0.0
2014-Sep-21 14:31N 41°22' E 002°11'0 0.0
2014-Sep-21 13:25N 41°22' E 002°11'0 0.0
2014-Sep-21 12:31N 41°22' E 002°11'0 0.0
2014-Sep-21 11:25N 41°22' E 002°11'0 0.0
2014-Sep-21 05:31N 41°22' E 002°11'1 0.5
2014-Sep-21 03:32N 41°21' E 002°10'10 9.6
2014-Sep-21 02:32N 41°16' E 002°21'1616.7
2014-Sep-21 01:33N 41°17' E 002°43'1716.4
2014-Sep-21 00:32N 41°16' E 003°05'1816.9
2014-Sep-20 23:29N 41°15' E 003°29'1617.1
2014-Sep-20 22:34N 41°16' E 003°49'2116.8
2014-Sep-20 21:17N 41°17' E 004°18'3116.2
2014-Sep-20 19:22N 41°16' E 004°59'1815.6
2014-Sep-20 18:12N 41°17' E 005°24'1014.9
2014-Sep-20 17:33N 41°17' E 005°36'1515.4
2014-Sep-20 16:34N 41°17' E 005°57'1615.9
2014-Sep-20 15:33N 41°17' E 006°18'2316.2
2014-Sep-20 14:08N 41°17' E 006°48'1116.8
2014-Sep-20 13:28N 41°17' E 007°04'3716.3
2014-Sep-20 11:10N 41°18' E 007°53'  
Track history (hours):
 
Tides and Currents Weather Stations Pressure Air Temp Water Temp Dewpoint Dewpoint Depression Visibility Wind Speed Wind Dir Waves Ship Positions

Liberty of The Seas

Last reported at 2014-Sep-30 08:26 UTC. Time now 2014-Sep-30 12:04 UTC.
Position N 43°41' E 007°19'.

Type: Passenger vessel. MMSI: 309436000.

Date/timePositionNaut miles runAvg speedWind from/ knotsBaromVisibWave heightAir tempDewpointWater temp
2014-Sep-30 08:26N 43°41' E 007°19'0 0.0
2014-Sep-30 07:26N 43°41' E 007°19'0 0.0
2014-Sep-30 06:26N 43°41' E 007°19'0 0.0
2014-Sep-30 05:32N 43°41' E 007°19'0 0.1
2014-Sep-30 04:33N 43°41' E 007°19'10 9.8
2014-Sep-30 03:33N 43°32' E 007°17'1711.7
2014-Sep-30 02:05N 43°15' E 007°10'612.2
2014-Sep-30 01:33N 43°10' E 007°06'1312.5
2014-Sep-30 00:34N 43°01' E 006°54'1312.7
2014-Sep-29 23:33N 42°51' E 006°43'2411.7
2014-Sep-29 21:31N 42°44' E 006°12'1212.2
2014-Sep-29 20:33N 42°46' E 005°56'1211.9
2014-Sep-29 19:33N 42°49' E 005°40'3012.2
2014-Sep-29 17:06N 43°14' E 005°16'8 0.7
2014-Sep-29 06:25N 43°21' E 005°20'8 9.6
2014-Sep-29 05:33N 43°16' E 005°11'134 4.3
2014-Sep-27 22:29N 41°16' E 003°48'9716.1
2014-Sep-27 16:27N 41°17' E 005°57'1615.8
2014-Sep-27 15:26N 41°17' E 006°18'1716.7
2014-Sep-27 14:26N 41°17' E 006°41'  
2014-Sep-24 19:32N 43°34' E 009°38'1616.4
2014-Sep-24 18:33N 43°49' E 009°47'1515.0
2014-Sep-24 17:33N 44°04' E 009°51'3 2.8
2014-Sep-24 16:33N 44°06' E 009°50'0 0.0
2014-Sep-24 15:33N 44°06' E 009°50'0 0.0
2014-Sep-24 14:33N 44°06' E 009°50'0 0.0
2014-Sep-24 13:33N 44°06' E 009°50'0 0.0
2014-Sep-24 12:33N 44°06' E 009°50'0 0.0
2014-Sep-24 11:33N 44°06' E 009°50'0 0.0
2014-Sep-24 10:33N 44°06' E 009°50'0 0.0
2014-Sep-24 09:33N 44°06' E 009°50'0 0.0
2014-Sep-24 08:33N 44°06' E 009°50'0 0.0
2014-Sep-24 07:33N 44°06' E 009°50'0 0.0
2014-Sep-24 06:33N 44°06' E 009°50'0 0.0
2014-Sep-24 05:33N 44°06' E 009°50'0 0.3
2014-Sep-24 04:33N 44°06' E 009°50'7 6.6
2014-Sep-24 03:33N 44°01' E 009°56'9 8.7
2014-Sep-24 02:33N 43°57' E 009°45'1110.7
2014-Sep-24 01:33N 43°56' E 009°30'1111.2
2014-Sep-24 00:33N 43°54' E 009°15'1111.4
2014-Sep-23 23:33N 43°52' E 008°59'1111.4
2014-Sep-23 22:33N 43°50' E 008°44'1211.7
2014-Sep-23 21:30N 43°48' E 008°27'4911.8
2014-Sep-23 17:20N 43°40' E 007°20'2 1.8
2014-Sep-23 16:15N 43°41' E 007°19'0 0.0
2014-Sep-23 15:09N 43°41' E 007°19'0 0.0
2014-Sep-23 14:15N 43°41' E 007°19'0 0.0
2014-Sep-23 13:09N 43°41' E 007°19'0 0.0
2014-Sep-23 09:27N 43°41' E 007°19'0 0.0
2014-Sep-23 08:33N 43°41' E 007°19'0 0.0
2014-Sep-23 07:33N 43°41' E 007°19'0 0.0
2014-Sep-23 06:31N 43°41' E 007°19'0 0.0
2014-Sep-23 05:31N 43°41' E 007°19'3 2.0
2014-Sep-23 04:10N 43°39' E 007°18'711.0
2014-Sep-23 03:33N 43°32' E 007°17'1611.2
2014-Sep-23 02:10N 43°17' E 007°12'711.6
2014-Sep-23 01:33N 43°12' E 007°06'1411.6
2014-Sep-23 00:19N 43°01' E 006°52'1012.7
2014-Sep-22 23:33N 42°53' E 006°44'1211.6
2014-Sep-22 22:33N 42°45' E 006°33'1312.0
2014-Sep-22 21:29N 42°45' E 006°16'1111.9
2014-Sep-22 20:32N 42°46' E 006°00'1212.0
2014-Sep-22 19:33N 42°48' E 005°45'38 2.9
2014-Sep-22 06:29N 43°21' E 005°20'1011.1
2014-Sep-22 05:33N 43°14' E 005°09'1615.7
2014-Sep-22 04:33N 43°03' E 004°54'1615.6
2014-Sep-22 03:32N 42°50' E 004°40'1515.5
2014-Sep-22 02:33N 42°39' E 004°27'2115.5
2014-Sep-22 01:14N 42°23' E 004°09'3016.4
2014-Sep-21 23:25N 42°02' E 003°41'1516.5
2014-Sep-21 22:31N 41°51' E 003°27'1616.2
2014-Sep-21 21:33N 41°43' E 003°10'2019.1
2014-Sep-21 20:29N 41°32' E 002°46'1212.9
2014-Sep-21 19:33N 41°26' E 002°33'1716.4
2014-Sep-21 18:30N 41°16' E 002°13'5 4.9
2014-Sep-21 17:25N 41°22' E 002°11'0 0.0
2014-Sep-21 15:19N 41°22' E 002°11'0 0.0
2014-Sep-21 14:31N 41°22' E 002°11'0 0.0
2014-Sep-21 13:25N 41°22' E 002°11'0 0.0
2014-Sep-21 12:31N 41°22' E 002°11'0 0.0
2014-Sep-21 11:25N 41°22' E 002°11'0 0.0
2014-Sep-21 05:31N 41°22' E 002°11'1 0.5
2014-Sep-21 03:32N 41°21' E 002°10'10 9.6
2014-Sep-21 02:32N 41°16' E 002°21'1616.7
2014-Sep-21 01:33N 41°17' E 002°43'1716.4
2014-Sep-21 00:32N 41°16' E 003°05'1816.9
2014-Sep-20 23:29N 41°15' E 003°29'1617.1
2014-Sep-20 22:34N 41°16' E 003°49'2116.8
2014-Sep-20 21:17N 41°17' E 004°18'3116.2
2014-Sep-20 19:22N 41°16' E 004°59'1815.6
2014-Sep-20 18:12N 41°17' E 005°24'1014.9
2014-Sep-20 17:33N 41°17' E 005°36'1515.4
2014-Sep-20 16:34N 41°17' E 005°57'1615.9
2014-Sep-20 15:33N 41°17' E 006°18'2316.2
2014-Sep-20 14:08N 41°17' E 006°48'1116.8
2014-Sep-20 13:28N 41°17' E 007°04'3716.3
2014-Sep-20 11:10N 41°18' E 007°53'  

Dump ship's entire track history